KJST/JST METAR and TAF weather

Enter ICAO airport designator
Station Type Date Time Source
KJST METAR 2021/09/23 23:54 UTC NOAA

KJST 232354Z AUTO 22007KT 10SM CLR 11/06 A2997 RMK AO2 SLP151 60000 T01060056 10133 20106 51015


Station Type Date Time Source
KJST Decoded METAR 2021/09/23 23:54 UTC NOAA

JOHNSTOWN-CAMBRIA CO AIRPORT , PA, United States (KJST) 40-19N 078-50W 694M
Sep 23, 2021 - 07:54 PM EDT / 2021.09.23 2354 UTC
Wind: from the SW (220 degrees) at 8 MPH (7 KT):0
Visibility: 10 mile(s):0
Sky conditions: clear
Temperature: 51.1 F (10.6 C)
Dew Point: 42.1 F (5.6 C)
Relative Humidity: 71%
Pressure (altimeter): 29.97 in. Hg (1014 hPa)
Pressure tendency: 0.04 inches (1.5 hPa) higher than three hours ago
ob: KJST 232354Z AUTO 22007KT 10SM CLR 11/06 A2997 RMK AO2 SLP151 60000 T01060056 10133 20106 51015
cycle: 0

Station Type Date Time Source
KJST TAF 2021/09/23 22:48 UTC NOAA

TAF
AMD KJST 232146Z 2322/2418 25010G22KT P6SM SCT035 OVC045
FM240000 24010KT P6SM SCT035
FM241400 26012G20KT P6SM SKC

Example: see airport list